Twentynine Palms (Self) Airport
KNXP : now visible

Airfield :











YOU CAN JOIN US ON...

 
LOGIN :

Register | Disclaimer

   EN    FR    IT 

 









Legend :    VFR   Marginal VFR   IFR   Intensive IFR   Very Intensive IFR
Visi :
Ceiling :
>= 8 km
>= 3000ft
5 to 8 km
1000 to 3000 ft
1500m to 5 km
500 to 1000 ft
800 to 1500m
200 to 500 ft
< 800m
< 200 ft
Symbols :   Thunderstorms  Fog  Heavy snow  Heavy precipitations  Wind > 20 kt






- Airport Elevation : 2051 ft


KNXP - Twentynine Palms (Self)

EXPIRED METARs :
  • 181356Z AUTO 30012KT 10SM CLR 22/M01 A2983 RMK AO2 SLP065 T02171011

TAF TAF KNXP
Valid from the 18 at 15:00 until the 19 at 15:00 UTC


1815/1915 33015G25KT 9999 SKC QNH2983INS
BECMG 1816/1818 34013KT 9999 SKC QNH2980INS
FM182130 34006KT 9999 SKC QNH2977INS
BECMG 1904/1906 21010KT 9999 SKC QNH2970INS
FM190930 VRB06KT 9999 SKC QNH2979INS T21/1815Z T37/1821Z
KZLA FIR / North America



MET'MAP, your aeronautical weather chart ! - Copyright ORBIFLY December 2007 - Disclaimer

ORBIFLY MET'MAP TEAM :

Programming & Development : Alexandra Zaïnal
Original concept : Baudouin d'Aumeries
Technical & hardware support : Manuel Goepfert
Assistance : Marc-Olivier Méhu




SOURCES & CREDITS :

   NOAA       Earth
Advisory